sensor_id;sensor_type;location;lat;lon;timestamp;temperature;humidity
51619;DHT22;38518;53.164;5.430;2023-05-09T00:02:12;13.60;99.90
51619;DHT22;38518;53.164;5.430;2023-05-09T00:04:38;13.60;99.90
51619;DHT22;38518;53.164;5.430;2023-05-09T00:07:04;13.60;99.90
51619;DHT22;38518;53.164;5.430;2023-05-09T00:09:30;13.60;99.90
51619;DHT22;38518;53.164;5.430;2023-05-09T00:11:56;13.60;99.90
51619;DHT22;38518;53.164;5.430;2023-05-09T00:14:21;13.60;99.90
51619;DHT22;38518;53.164;5.430;2023-05-09T00:16:49;13.50;99.90
51619;DHT22;38518;53.164;5.430;2023-05-09T00:19:15;13.50;99.90
51619;DHT22;38518;53.164;5.430;2023-05-09T00:21:40;13.60;99.90
51619;DHT22;38518;53.164;5.430;2023-05-09T00:24:06;13.50;99.90
51619;DHT22;38518;53.164;5.430;2023-05-09T00:26:32;13.50;99.90
51619;DHT22;38518;53.164;5.430;2023-05-09T00:28:58;13.50;99.90
51619;DHT22;38518;53.164;5.430;2023-05-09T00:31:23;13.50;99.90
51619;DHT22;38518;53.164;5.430;2023-05-09T00:33:49;13.50;99.90
51619;DHT22;38518;53.164;5.430;2023-05-09T00:36:15;13.50;99.90
51619;DHT22;38518;53.164;5.430;2023-05-09T00:38:41;13.50;99.90
51619;DHT22;38518;53.164;5.430;2023-05-09T00:41:07;13.10;99.90
51619;DHT22;38518;53.164;5.430;2023-05-09T00:43:32;13.40;99.90
51619;DHT22;38518;53.164;5.430;2023-05-09T00:45:58;13.40;99.90
51619;DHT22;38518;53.164;5.430;2023-05-09T00:48:24;13.40;99.90
51619;DHT22;38518;53.164;5.430;2023-05-09T00:50:50;13.50;99.90
51619;DHT22;38518;53.164;5.430;2023-05-09T00:53:20;13.30;99.90
51619;DHT22;38518;53.164;5.430;2023-05-09T00:55:46;13.30;99.90
51619;DHT22;38518;53.164;5.430;2023-05-09T00:58:12;13.30;99.90
51619;DHT22;38518;53.164;5.430;2023-05-09T01:00:38;13.30;99.90
51619;DHT22;38518;53.164;5.430;2023-05-09T01:03:04;13.30;99.90
51619;DHT22;38518;53.164;5.430;2023-05-09T01:05:51;13.40;99.90
51619;DHT22;38518;53.164;5.430;2023-05-09T01:14:23;13.30;99.90
51619;DHT22;38518;53.164;5.430;2023-05-09T01:16:59;13.30;99.90
51619;DHT22;38518;53.164;5.430;2023-05-09T01:22:28;13.30;99.90
51619;DHT22;38518;53.164;5.430;2023-05-09T01:25:18;13.40;99.90
51619;DHT22;38518;53.164;5.430;2023-05-09T01:30:24;13.30;99.90
51619;DHT22;38518;53.164;5.430;2023-05-09T01:32:51;13.40;99.90
51619;DHT22;38518;53.164;5.430;2023-05-09T01:35:22;13.40;99.90
51619;DHT22;38518;53.164;5.430;2023-05-09T01:37:51;13.30;99.90
51619;DHT22;38518;53.164;5.430;2023-05-09T01:40:19;13.30;99.90
51619;DHT22;38518;53.164;5.430;2023-05-09T01:42:56;13.30;99.90
51619;DHT22;38518;53.164;5.430;2023-05-09T01:45:23;13.30;99.90
51619;DHT22;38518;53.164;5.430;2023-05-09T01:47:51;13.40;99.90
51619;DHT22;38518;53.164;5.430;2023-05-09T01:50:18;13.40;99.90
51619;DHT22;38518;53.164;5.430;2023-05-09T01:52:47;13.40;99.90
51619;DHT22;38518;53.164;5.430;2023-05-09T01:55:14;13.40;99.90
51619;DHT22;38518;53.164;5.430;2023-05-09T01:57:42;13.40;99.90
51619;DHT22;38518;53.164;5.430;2023-05-09T02:00:09;13.40;99.90
51619;DHT22;38518;53.164;5.430;2023-05-09T02:02:37;13.40;99.90
51619;DHT22;38518;53.164;5.430;2023-05-09T02:05:04;13.40;99.90
51619;DHT22;38518;53.164;5.430;2023-05-09T02:07:30;13.40;99.90
51619;DHT22;38518;53.164;5.430;2023-05-09T02:09:57;13.50;99.90
51619;DHT22;38518;53.164;5.430;2023-05-09T02:12:25;13.40;99.90
51619;DHT22;38518;53.164;5.430;2023-05-09T02:14:51;13.40;99.90
51619;DHT22;38518;53.164;5.430;2023-05-09T02:17:17;13.40;99.90
51619;DHT22;38518;53.164;5.430;2023-05-09T02:19:44;13.40;99.90
51619;DHT22;38518;53.164;5.430;2023-05-09T02:22:11;13.40;99.90
51619;DHT22;38518;53.164;5.430;2023-05-09T02:24:37;13.40;99.90
51619;DHT22;38518;53.164;5.430;2023-05-09T02:27:04;13.40;99.90
51619;DHT22;38518;53.164;5.430;2023-05-09T02:29:39;13.50;99.90
51619;DHT22;38518;53.164;5.430;2023-05-09T02:32:30;13.40;99.90
51619;DHT22;38518;53.164;5.430;2023-05-09T02:34:57;13.50;99.90
51619;DHT22;38518;53.164;5.430;2023-05-09T02:37:23;13.40;99.90
51619;DHT22;38518;53.164;5.430;2023-05-09T02:39:50;13.40;99.90
51619;DHT22;38518;53.164;5.430;2023-05-09T02:42:20;13.50;99.90
51619;DHT22;38518;53.164;5.430;2023-05-09T02:44:47;13.40;99.90
51619;DHT22;38518;53.164;5.430;2023-05-09T02:47:12;13.50;99.90
51619;DHT22;38518;53.164;5.430;2023-05-09T02:49:38;15.00;99.90
51619;DHT22;38518;53.164;5.430;2023-05-09T02:52:04;13.50;99.90
51619;DHT22;38518;53.164;5.430;2023-05-09T02:54:30;13.50;99.90
51619;DHT22;38518;53.164;5.430;2023-05-09T02:56:56;13.10;99.90
51619;DHT22;38518;53.164;5.430;2023-05-09T02:59:21;13.50;99.90
51619;DHT22;38518;53.164;5.430;2023-05-09T03:01:47;13.40;99.90
51619;DHT22;38518;53.164;5.430;2023-05-09T03:04:13;13.50;99.90
51619;DHT22;38518;53.164;5.430;2023-05-09T03:06:39;13.40;99.90
51619;DHT22;38518;53.164;5.430;2023-05-09T03:09:04;13.50;99.90
51619;DHT22;38518;53.164;5.430;2023-05-09T03:11:31;13.50;99.90
51619;DHT22;38518;53.164;5.430;2023-05-09T03:13:57;13.40;99.90
51619;DHT22;38518;53.164;5.430;2023-05-09T03:16:23;13.50;99.90
51619;DHT22;38518;53.164;5.430;2023-05-09T03:18:48;13.50;99.90
51619;DHT22;38518;53.164;5.430;2023-05-09T03:21:15;13.40;99.90
51619;DHT22;38518;53.164;5.430;2023-05-09T03:23:41;13.50;99.90
51619;DHT22;38518;53.164;5.430;2023-05-09T03:26:07;13.40;99.90
51619;DHT22;38518;53.164;5.430;2023-05-09T03:28:33;12.80;99.90
51619;DHT22;38518;53.164;5.430;2023-05-09T03:30:59;13.40;99.90
51619;DHT22;38518;53.164;5.430;2023-05-09T03:33:25;13.40;99.90
51619;DHT22;38518;53.164;5.430;2023-05-09T03:35:51;13.40;99.90
51619;DHT22;38518;53.164;5.430;2023-05-09T03:38:16;13.40;99.90
51619;DHT22;38518;53.164;5.430;2023-05-09T03:40:42;13.40;99.90
51619;DHT22;38518;53.164;5.430;2023-05-09T03:43:08;13.40;99.90
51619;DHT22;38518;53.164;5.430;2023-05-09T03:45:34;13.40;99.90
51619;DHT22;38518;53.164;5.430;2023-05-09T03:48:00;13.50;99.90
51619;DHT22;38518;53.164;5.430;2023-05-09T03:50:29;13.10;99.90
51619;DHT22;38518;53.164;5.430;2023-05-09T03:52:55;13.40;99.90
51619;DHT22;38518;53.164;5.430;2023-05-09T03:55:21;13.40;99.90
51619;DHT22;38518;53.164;5.430;2023-05-09T03:57:48;13.40;99.90
51619;DHT22;38518;53.164;5.430;2023-05-09T04:00:14;13.50;99.90
51619;DHT22;38518;53.164;5.430;2023-05-09T04:02:41;13.40;99.90
51619;DHT22;38518;53.164;5.430;2023-05-09T04:05:07;13.50;99.90
51619;DHT22;38518;53.164;5.430;2023-05-09T04:07:32;13.40;99.90
51619;DHT22;38518;53.164;5.430;2023-05-09T04:09:59;13.40;99.90
51619;DHT22;38518;53.164;5.430;2023-05-09T04:12:24;13.50;99.90
51619;DHT22;38518;53.164;5.430;2023-05-09T04:14:50;13.50;99.90
51619;DHT22;38518;53.164;5.430;2023-05-09T04:17:17;13.50;99.90
51619;DHT22;38518;53.164;5.430;2023-05-09T04:19:42;13.40;99.90
51619;DHT22;38518;53.164;5.430;2023-05-09T04:22:08;13.50;99.90
51619;DHT22;38518;53.164;5.430;2023-05-09T04:24:34;13.50;99.90
51619;DHT22;38518;53.164;5.430;2023-05-09T04:27:00;13.60;99.90
51619;DHT22;38518;53.164;5.430;2023-05-09T04:29:26;13.60;99.90
51619;DHT22;38518;53.164;5.430;2023-05-09T04:31:52;13.60;99.90
51619;DHT22;38518;53.164;5.430;2023-05-09T04:34:18;13.60;99.90
51619;DHT22;38518;53.164;5.430;2023-05-09T04:36:44;13.60;99.90
51619;DHT22;38518;53.164;5.430;2023-05-09T04:39:10;13.60;99.90
51619;DHT22;38518;53.164;5.430;2023-05-09T04:41:37;13.70;99.90
51619;DHT22;38518;53.164;5.430;2023-05-09T04:44:03;13.70;99.90
51619;DHT22;38518;53.164;5.430;2023-05-09T04:46:29;13.70;99.90
51619;DHT22;38518;53.164;5.430;2023-05-09T04:48:55;13.70;99.90
51619;DHT22;38518;53.164;5.430;2023-05-09T04:51:21;13.80;99.90
51619;DHT22;38518;53.164;5.430;2023-05-09T04:53:47;13.90;99.90
51619;DHT22;38518;53.164;5.430;2023-05-09T04:56:12;13.90;99.90
51619;DHT22;38518;53.164;5.430;2023-05-09T04:58:38;13.90;99.90
51619;DHT22;38518;53.164;5.430;2023-05-09T05:01:05;13.90;99.90
51619;DHT22;38518;53.164;5.430;2023-05-09T05:03:31;13.90;99.90
51619;DHT22;38518;53.164;5.430;2023-05-09T05:05:57;13.90;99.90
51619;DHT22;38518;53.164;5.430;2023-05-09T05:08:23;13.90;99.90
51619;DHT22;38518;53.164;5.430;2023-05-09T05:10:49;14.00;99.90
51619;DHT22;38518;53.164;5.430;2023-05-09T05:13:15;13.90;99.90
51619;DHT22;38518;53.164;5.430;2023-05-09T05:15:41;14.00;99.90
51619;DHT22;38518;53.164;5.430;2023-05-09T05:18:07;14.00;99.90
51619;DHT22;38518;53.164;5.430;2023-05-09T05:20:33;13.90;99.90
51619;DHT22;38518;53.164;5.430;2023-05-09T05:22:59;14.00;99.90
51619;DHT22;38518;53.164;5.430;2023-05-09T05:25:25;14.20;99.90
51619;DHT22;38518;53.164;5.430;2023-05-09T05:27:51;14.00;99.90
51619;DHT22;38518;53.164;5.430;2023-05-09T05:30:17;14.00;99.90
51619;DHT22;38518;53.164;5.430;2023-05-09T05:32:43;14.10;99.90
51619;DHT22;38518;53.164;5.430;2023-05-09T05:35:09;14.20;99.90
51619;DHT22;38518;53.164;5.430;2023-05-09T05:37:41;14.20;99.90
51619;DHT22;38518;53.164;5.430;2023-05-09T05:40:08;14.20;99.90
51619;DHT22;38518;53.164;5.430;2023-05-09T05:42:34;14.30;99.90
51619;DHT22;38518;53.164;5.430;2023-05-09T05:45:00;14.40;99.90
51619;DHT22;38518;53.164;5.430;2023-05-09T05:47:32;14.40;99.90
51619;DHT22;38518;53.164;5.430;2023-05-09T05:49:59;14.40;99.90
51619;DHT22;38518;53.164;5.430;2023-05-09T05:52:25;14.40;99.90
51619;DHT22;38518;53.164;5.430;2023-05-09T05:54:52;14.50;99.90
51619;DHT22;38518;53.164;5.430;2023-05-09T05:57:18;14.50;99.90
51619;DHT22;38518;53.164;5.430;2023-05-09T05:59:51;14.50;99.90
51619;DHT22;38518;53.164;5.430;2023-05-09T06:02:17;14.60;1.00
51619;DHT22;38518;53.164;5.430;2023-05-09T06:04:43;14.60;99.90
51619;DHT22;38518;53.164;5.430;2023-05-09T06:07:09;14.60;99.90
51619;DHT22;38518;53.164;5.430;2023-05-09T06:09:36;14.70;99.90
51619;DHT22;38518;53.164;5.430;2023-05-09T06:12:02;14.70;99.90
51619;DHT22;38518;53.164;5.430;2023-05-09T06:14:27;14.70;99.90
51619;DHT22;38518;53.164;5.430;2023-05-09T06:16:53;14.70;99.90
51619;DHT22;38518;53.164;5.430;2023-05-09T06:19:19;14.70;99.90
51619;DHT22;38518;53.164;5.430;2023-05-09T06:21:45;14.90;99.90
51619;DHT22;38518;53.164;5.430;2023-05-09T06:24:11;14.90;99.90
51619;DHT22;38518;53.164;5.430;2023-05-09T06:26:37;14.70;99.90
51619;DHT22;38518;53.164;5.430;2023-05-09T06:29:03;15.00;99.90
51619;DHT22;38518;53.164;5.430;2023-05-09T06:31:32;15.00;99.90
51619;DHT22;38518;53.164;5.430;2023-05-09T06:34:03;15.00;99.90
51619;DHT22;38518;53.164;5.430;2023-05-09T06:36:29;15.00;99.90
51619;DHT22;38518;53.164;5.430;2023-05-09T06:38:55;15.00;99.90
51619;DHT22;38518;53.164;5.430;2023-05-09T06:41:21;14.90;99.90
51619;DHT22;38518;53.164;5.430;2023-05-09T06:43:47;14.80;99.90
51619;DHT22;38518;53.164;5.430;2023-05-09T06:46:13;14.90;99.90
51619;DHT22;38518;53.164;5.430;2023-05-09T06:48:38;14.90;99.90
51619;DHT22;38518;53.164;5.430;2023-05-09T06:51:04;14.80;99.90
51619;DHT22;38518;53.164;5.430;2023-05-09T06:53:30;14.80;99.90
51619;DHT22;38518;53.164;5.430;2023-05-09T06:55:56;14.90;99.90
51619;DHT22;38518;53.164;5.430;2023-05-09T06:58:22;14.90;99.90
51619;DHT22;38518;53.164;5.430;2023-05-09T07:00:48;14.90;99.90
51619;DHT22;38518;53.164;5.430;2023-05-09T07:03:13;15.00;99.90
51619;DHT22;38518;53.164;5.430;2023-05-09T07:05:40;15.00;99.90
51619;DHT22;38518;53.164;5.430;2023-05-09T07:08:06;14.90;99.90
51619;DHT22;38518;53.164;5.430;2023-05-09T07:10:32;14.90;99.90
51619;DHT22;38518;53.164;5.430;2023-05-09T07:12:57;14.90;99.90
51619;DHT22;38518;53.164;5.430;2023-05-09T07:15:23;14.90;99.90
51619;DHT22;38518;53.164;5.430;2023-05-09T07:17:49;14.80;99.90
51619;DHT22;38518;53.164;5.430;2023-05-09T07:20:15;14.90;99.90
51619;DHT22;38518;53.164;5.430;2023-05-09T07:22:41;14.90;99.90
51619;DHT22;38518;53.164;5.430;2023-05-09T07:25:07;14.80;99.90
51619;DHT22;38518;53.164;5.430;2023-05-09T07:27:33;14.80;99.90
51619;DHT22;38518;53.164;5.430;2023-05-09T07:29:59;14.80;99.90
51619;DHT22;38518;53.164;5.430;2023-05-09T07:32:25;14.80;99.90
51619;DHT22;38518;53.164;5.430;2023-05-09T07:34:53;14.90;99.90
51619;DHT22;38518;53.164;5.430;2023-05-09T07:37:19;14.80;99.90
51619;DHT22;38518;53.164;5.430;2023-05-09T07:39:45;14.80;99.90
51619;DHT22;38518;53.164;5.430;2023-05-09T07:42:14;14.80;99.90
51619;DHT22;38518;53.164;5.430;2023-05-09T07:44:40;14.80;99.90
51619;DHT22;38518;53.164;5.430;2023-05-09T07:47:06;14.80;99.90
51619;DHT22;38518;53.164;5.430;2023-05-09T07:49:33;14.80;99.90
51619;DHT22;38518;53.164;5.430;2023-05-09T07:51:59;14.80;99.90
51619;DHT22;38518;53.164;5.430;2023-05-09T07:54:25;14.80;99.90
51619;DHT22;38518;53.164;5.430;2023-05-09T07:56:51;14.80;99.90
51619;DHT22;38518;53.164;5.430;2023-05-09T07:59:17;14.80;99.90
51619;DHT22;38518;53.164;5.430;2023-05-09T08:01:44;14.80;99.90
51619;DHT22;38518;53.164;5.430;2023-05-09T08:04:10;14.80;99.90
51619;DHT22;38518;53.164;5.430;2023-05-09T08:06:35;14.80;99.90
51619;DHT22;38518;53.164;5.430;2023-05-09T08:09:02;14.80;99.90
51619;DHT22;38518;53.164;5.430;2023-05-09T08:11:34;14.80;99.90
51619;DHT22;38518;53.164;5.430;2023-05-09T08:14:00;14.90;99.90
51619;DHT22;38518;53.164;5.430;2023-05-09T08:16:28;14.90;99.90
51619;DHT22;38518;53.164;5.430;2023-05-09T08:18:57;15.00;99.90
51619;DHT22;38518;53.164;5.430;2023-05-09T08:21:22;15.00;99.90
51619;DHT22;38518;53.164;5.430;2023-05-09T08:23:57;14.90;99.90
51619;DHT22;38518;53.164;5.430;2023-05-09T08:26:23;15.00;99.90
51619;DHT22;38518;53.164;5.430;2023-05-09T08:28:49;15.00;99.90
51619;DHT22;38518;53.164;5.430;2023-05-09T08:31:15;15.00;99.90
51619;DHT22;38518;53.164;5.430;2023-05-09T08:33:40;15.00;99.90
51619;DHT22;38518;53.164;5.430;2023-05-09T08:36:06;15.00;99.90
51619;DHT22;38518;53.164;5.430;2023-05-09T08:38:32;15.00;99.90
51619;DHT22;38518;53.164;5.430;2023-05-09T08:41:00;15.10;99.90
51619;DHT22;38518;53.164;5.430;2023-05-09T08:43:28;15.00;99.90
51619;DHT22;38518;53.164;5.430;2023-05-09T08:45:57;15.10;99.90
51619;DHT22;38518;53.164;5.430;2023-05-09T08:48:25;15.10;99.90
51619;DHT22;38518;53.164;5.430;2023-05-09T08:50:53;15.10;99.90
51619;DHT22;38518;53.164;5.430;2023-05-09T08:53:19;15.10;99.90
51619;DHT22;38518;53.164;5.430;2023-05-09T08:55:46;15.10;99.90
51619;DHT22;38518;53.164;5.430;2023-05-09T08:58:12;15.10;99.90
51619;DHT22;38518;53.164;5.430;2023-05-09T09:00:40;15.20;99.90
51619;DHT22;38518;53.164;5.430;2023-05-09T09:03:06;15.30;99.90
51619;DHT22;38518;53.164;5.430;2023-05-09T09:05:35;15.30;99.90
51619;DHT22;38518;53.164;5.430;2023-05-09T09:08:02;15.30;99.90
51619;DHT22;38518;53.164;5.430;2023-05-09T09:10:31;15.30;99.90
51619;DHT22;38518;53.164;5.430;2023-05-09T09:13:02;15.30;99.90
51619;DHT22;38518;53.164;5.430;2023-05-09T09:15:33;15.30;99.90
51619;DHT22;38518;53.164;5.430;2023-05-09T09:18:05;15.30;99.90
51619;DHT22;38518;53.164;5.430;2023-05-09T09:20:35;15.30;99.90
51619;DHT22;38518;53.164;5.430;2023-05-09T09:23:03;15.30;99.90
51619;DHT22;38518;53.164;5.430;2023-05-09T09:25:32;15.20;99.90
51619;DHT22;38518;53.164;5.430;2023-05-09T09:27:58;15.20;99.90
51619;DHT22;38518;53.164;5.430;2023-05-09T09:30:24;15.20;99.90
51619;DHT22;38518;53.164;5.430;2023-05-09T09:32:50;15.10;99.90
51619;DHT22;38518;53.164;5.430;2023-05-09T09:35:16;15.10;99.90
51619;DHT22;38518;53.164;5.430;2023-05-09T09:37:42;15.10;99.90
51619;DHT22;38518;53.164;5.430;2023-05-09T09:40:10;15.10;99.90
51619;DHT22;38518;53.164;5.430;2023-05-09T09:42:44;15.10;99.90
51619;DHT22;38518;53.164;5.430;2023-05-09T09:45:14;15.30;99.90
51619;DHT22;38518;53.164;5.430;2023-05-09T09:47:42;15.20;99.90
51619;DHT22;38518;53.164;5.430;2023-05-09T09:50:14;15.20;99.90
51619;DHT22;38518;53.164;5.430;2023-05-09T09:52:49;15.20;99.90
51619;DHT22;38518;53.164;5.430;2023-05-09T09:55:16;15.20;99.90
51619;DHT22;38518;53.164;5.430;2023-05-09T09:57:45;15.20;99.90
51619;DHT22;38518;53.164;5.430;2023-05-09T10:00:15;15.70;99.90
51619;DHT22;38518;53.164;5.430;2023-05-09T10:02:51;15.00;99.90
51619;DHT22;38518;53.164;5.430;2023-05-09T10:05:26;15.00;99.90
51619;DHT22;38518;53.164;5.430;2023-05-09T10:08:04;15.00;1.00
51619;DHT22;38518;53.164;5.430;2023-05-09T10:10:36;15.00;1.00
51619;DHT22;38518;53.164;5.430;2023-05-09T10:13:07;15.00;1.00
51619;DHT22;38518;53.164;5.430;2023-05-09T10:15:35;15.00;1.00
51619;DHT22;38518;53.164;5.430;2023-05-09T10:18:04;15.00;1.00
51619;DHT22;38518;53.164;5.430;2023-05-09T10:20:37;15.00;1.00
51619;DHT22;38518;53.164;5.430;2023-05-09T10:23:07;14.90;1.00
51619;DHT22;38518;53.164;5.430;2023-05-09T10:25:46;14.90;1.00
51619;DHT22;38518;53.164;5.430;2023-05-09T10:28:16;14.90;1.00
51619;DHT22;38518;53.164;5.430;2023-05-09T10:31:08;15.00;1.00
51619;DHT22;38518;53.164;5.430;2023-05-09T10:33:42;14.90;1.00
51619;DHT22;38518;53.164;5.430;2023-05-09T10:36:11;14.90;1.00
51619;DHT22;38518;53.164;5.430;2023-05-09T10:38:38;14.90;1.00
51619;DHT22;38518;53.164;5.430;2023-05-09T10:41:04;16.30;1.00
51619;DHT22;38518;53.164;5.430;2023-05-09T10:43:31;14.90;1.00
51619;DHT22;38518;53.164;5.430;2023-05-09T10:46:02;15.00;1.00
51619;DHT22;38518;53.164;5.430;2023-05-09T10:48:40;15.10;1.00
51619;DHT22;38518;53.164;5.430;2023-05-09T10:51:07;15.00;1.00
51619;DHT22;38518;53.164;5.430;2023-05-09T10:53:43;15.00;1.00
51619;DHT22;38518;53.164;5.430;2023-05-09T10:56:23;15.00;1.00
51619;DHT22;38518;53.164;5.430;2023-05-09T10:58:49;15.00;1.00
51619;DHT22;38518;53.164;5.430;2023-05-09T11:01:27;14.90;1.00
51619;DHT22;38518;53.164;5.430;2023-05-09T11:03:56;14.90;1.00
51619;DHT22;38518;53.164;5.430;2023-05-09T11:14:40;15.10;1.00
51619;DHT22;38518;53.164;5.430;2023-05-09T11:17:11;15.10;1.00
51619;DHT22;38518;53.164;5.430;2023-05-09T11:22:18;15.10;1.00
51619;DHT22;38518;53.164;5.430;2023-05-09T11:24:45;15.80;1.00
51619;DHT22;38518;53.164;5.430;2023-05-09T11:27:18;15.00;1.00
51619;DHT22;38518;53.164;5.430;2023-05-09T11:29:49;14.90;1.00
51619;DHT22;38518;53.164;5.430;2023-05-09T11:32:20;14.90;1.00
51619;DHT22;38518;53.164;5.430;2023-05-09T11:34:47;14.80;1.00
51619;DHT22;38518;53.164;5.430;2023-05-09T11:37:16;14.70;1.00
51619;DHT22;38518;53.164;5.430;2023-05-09T11:39:59;14.80;1.00
51619;DHT22;38518;53.164;5.430;2023-05-09T11:42:27;14.70;1.00
51619;DHT22;38518;53.164;5.430;2023-05-09T11:44:55;15.40;1.00
51619;DHT22;38518;53.164;5.430;2023-05-09T11:47:21;14.60;1.00
51619;DHT22;38518;53.164;5.430;2023-05-09T11:49:50;14.60;1.00
51619;DHT22;38518;53.164;5.430;2023-05-09T11:52:17;14.70;1.00
51619;DHT22;38518;53.164;5.430;2023-05-09T11:54:44;14.80;1.00
51619;DHT22;38518;53.164;5.430;2023-05-09T11:57:13;14.60;1.00
51619;DHT22;38518;53.164;5.430;2023-05-09T11:59:42;14.30;1.00
51619;DHT22;38518;53.164;5.430;2023-05-09T12:02:10;14.60;1.00
51619;DHT22;38518;53.164;5.430;2023-05-09T12:04:36;14.50;1.00
51619;DHT22;38518;53.164;5.430;2023-05-09T12:07:03;14.30;1.00
51619;DHT22;38518;53.164;5.430;2023-05-09T12:09:30;14.30;1.00
51619;DHT22;38518;53.164;5.430;2023-05-09T12:12:00;14.60;1.00
51619;DHT22;38518;53.164;5.430;2023-05-09T12:14:27;14.50;1.00
51619;DHT22;38518;53.164;5.430;2023-05-09T12:16:53;14.60;10.10
51619;DHT22;38518;53.164;5.430;2023-05-09T12:19:21;14.60;20.30
51619;DHT22;38518;53.164;5.430;2023-05-09T12:21:47;14.60;26.10
51619;DHT22;38518;53.164;5.430;2023-05-09T12:24:18;14.60;32.10
51619;DHT22;38518;53.164;5.430;2023-05-09T12:26:46;14.60;43.20
51619;DHT22;38518;53.164;5.430;2023-05-09T12:29:12;14.60;54.30
51619;DHT22;38518;53.164;5.430;2023-05-09T12:31:40;14.60;71.40
51619;DHT22;38518;53.164;5.430;2023-05-09T12:34:09;14.80;92.40
51619;DHT22;38518;53.164;5.430;2023-05-09T12:36:41;14.70;99.90
51619;DHT22;38518;53.164;5.430;2023-05-09T12:39:11;14.70;99.90
51619;DHT22;38518;53.164;5.430;2023-05-09T12:41:44;14.80;99.90
51619;DHT22;38518;53.164;5.430;2023-05-09T12:44:23;14.90;99.90
51619;DHT22;38518;53.164;5.430;2023-05-09T12:47:01;14.80;99.90
51619;DHT22;38518;53.164;5.430;2023-05-09T12:49:31;14.90;99.90
51619;DHT22;38518;53.164;5.430;2023-05-09T12:51:58;15.00;99.90
51619;DHT22;38518;53.164;5.430;2023-05-09T12:54:30;14.90;99.90
51619;DHT22;38518;53.164;5.430;2023-05-09T12:57:01;14.70;99.90
51619;DHT22;38518;53.164;5.430;2023-05-09T12:59:36;14.80;99.90
51619;DHT22;38518;53.164;5.430;2023-05-09T13:02:06;14.90;99.90
51619;DHT22;38518;53.164;5.430;2023-05-09T13:04:32;14.80;99.90
51619;DHT22;38518;53.164;5.430;2023-05-09T13:06:58;14.70;99.90
51619;DHT22;38518;53.164;5.430;2023-05-09T13:09:25;14.80;99.90
51619;DHT22;38518;53.164;5.430;2023-05-09T13:11:54;14.80;99.90
51619;DHT22;38518;53.164;5.430;2023-05-09T13:14:25;14.80;99.90
51619;DHT22;38518;53.164;5.430;2023-05-09T13:16:51;14.90;99.90
51619;DHT22;38518;53.164;5.430;2023-05-09T13:19:17;15.00;99.90
51619;DHT22;38518;53.164;5.430;2023-05-09T13:21:42;14.90;99.90
51619;DHT22;38518;53.164;5.430;2023-05-09T13:24:08;15.00;99.90
51619;DHT22;38518;53.164;5.430;2023-05-09T13:26:34;15.00;99.90
51619;DHT22;38518;53.164;5.430;2023-05-09T13:29:00;15.00;99.90
51619;DHT22;38518;53.164;5.430;2023-05-09T13:31:26;15.00;99.90
51619;DHT22;38518;53.164;5.430;2023-05-09T13:33:54;15.00;99.90
51619;DHT22;38518;53.164;5.430;2023-05-09T13:36:20;15.00;99.90
51619;DHT22;38518;53.164;5.430;2023-05-09T13:38:46;14.60;99.90
51619;DHT22;38518;53.164;5.430;2023-05-09T13:41:12;15.00;99.90
51619;DHT22;38518;53.164;5.430;2023-05-09T13:43:44;15.00;99.90
51619;DHT22;38518;53.164;5.430;2023-05-09T13:46:13;15.10;99.90
51619;DHT22;38518;53.164;5.430;2023-05-09T13:48:39;15.00;99.90
51619;DHT22;38518;53.164;5.430;2023-05-09T13:51:07;15.10;99.90
51619;DHT22;38518;53.164;5.430;2023-05-09T13:53:34;15.10;99.90
51619;DHT22;38518;53.164;5.430;2023-05-09T13:56:00;15.00;99.90
51619;DHT22;38518;53.164;5.430;2023-05-09T13:58:26;15.00;91.30
51619;DHT22;38518;53.164;5.430;2023-05-09T14:00:52;14.40;98.90
51619;DHT22;38518;53.164;5.430;2023-05-09T14:03:18;15.00;98.50
51619;DHT22;38518;53.164;5.430;2023-05-09T14:05:43;15.00;95.30
51619;DHT22;38518;53.164;5.430;2023-05-09T14:08:09;15.00;98.10
51619;DHT22;38518;53.164;5.430;2023-05-09T14:10:38;15.10;98.30
51619;DHT22;38518;53.164;5.430;2023-05-09T14:13:04;15.00;99.90
51619;DHT22;38518;53.164;5.430;2023-05-09T14:15:29;14.40;98.40
51619;DHT22;38518;53.164;5.430;2023-05-09T14:17:55;15.00;99.00
51619;DHT22;38518;53.164;5.430;2023-05-09T14:20:21;15.10;99.90
51619;DHT22;38518;53.164;5.430;2023-05-09T14:22:47;15.10;99.80
51619;DHT22;38518;53.164;5.430;2023-05-09T14:25:13;15.00;99.90
51619;DHT22;38518;53.164;5.430;2023-05-09T14:27:39;15.10;99.90
51619;DHT22;38518;53.164;5.430;2023-05-09T14:30:05;15.20;99.90
51619;DHT22;38518;53.164;5.430;2023-05-09T14:32:31;15.00;99.90
51619;DHT22;38518;53.164;5.430;2023-05-09T14:35:02;15.00;99.90
51619;DHT22;38518;53.164;5.430;2023-05-09T14:37:30;15.10;99.90
51619;DHT22;38518;53.164;5.430;2023-05-09T14:39:57;15.00;99.90
51619;DHT22;38518;53.164;5.430;2023-05-09T14:42:30;15.00;99.90
51619;DHT22;38518;53.164;5.430;2023-05-09T14:44:57;15.10;99.90
51619;DHT22;38518;53.164;5.430;2023-05-09T14:47:23;15.00;99.90
51619;DHT22;38518;53.164;5.430;2023-05-09T14:49:48;15.00;99.90
51619;DHT22;38518;53.164;5.430;2023-05-09T14:52:14;15.00;99.90
51619;DHT22;38518;53.164;5.430;2023-05-09T14:54:42;15.10;99.90
51619;DHT22;38518;53.164;5.430;2023-05-09T14:57:08;15.00;99.90
51619;DHT22;38518;53.164;5.430;2023-05-09T14:59:33;15.00;99.90
51619;DHT22;38518;53.164;5.430;2023-05-09T15:01:59;14.90;99.90
51619;DHT22;38518;53.164;5.430;2023-05-09T15:04:25;15.00;99.90
51619;DHT22;38518;53.164;5.430;2023-05-09T15:06:55;14.90;99.90
51619;DHT22;38518;53.164;5.430;2023-05-09T15:09:21;14.90;99.90
51619;DHT22;38518;53.164;5.430;2023-05-09T15:11:47;14.90;99.90
51619;DHT22;38518;53.164;5.430;2023-05-09T15:14:13;15.00;99.90
51619;DHT22;38518;53.164;5.430;2023-05-09T15:16:39;15.00;99.90
51619;DHT22;38518;53.164;5.430;2023-05-09T15:19:05;14.90;99.90
51619;DHT22;38518;53.164;5.430;2023-05-09T15:21:30;14.90;99.90
51619;DHT22;38518;53.164;5.430;2023-05-09T15:23:57;15.80;99.90
51619;DHT22;38518;53.164;5.430;2023-05-09T15:26:23;14.90;99.90
51619;DHT22;38518;53.164;5.430;2023-05-09T15:28:50;15.60;99.90
51619;DHT22;38518;53.164;5.430;2023-05-09T15:31:16;14.20;99.90
51619;DHT22;38518;53.164;5.430;2023-05-09T15:33:46;14.90;99.90
51619;DHT22;38518;53.164;5.430;2023-05-09T15:36:12;14.90;99.90
51619;DHT22;38518;53.164;5.430;2023-05-09T15:38:38;15.00;99.90
51619;DHT22;38518;53.164;5.430;2023-05-09T15:41:04;14.90;99.90
51619;DHT22;38518;53.164;5.430;2023-05-09T15:43:29;14.90;99.90
51619;DHT22;38518;53.164;5.430;2023-05-09T15:45:55;14.90;99.90
51619;DHT22;38518;53.164;5.430;2023-05-09T15:48:21;14.90;99.90
51619;DHT22;38518;53.164;5.430;2023-05-09T15:50:48;14.90;99.90
51619;DHT22;38518;53.164;5.430;2023-05-09T15:53:16;15.00;99.90
51619;DHT22;38518;53.164;5.430;2023-05-09T15:55:42;14.80;99.90
51619;DHT22;38518;53.164;5.430;2023-05-09T15:58:09;14.80;99.90